createdAt,value
2018-04-13T00:01:33.218Z,62.93
2018-04-13T00:04:03.088Z,49.13
2018-04-13T00:06:33.415Z,52.10
2018-04-13T00:09:02.495Z,59.30
2018-04-13T00:11:32.373Z,56.50
2018-04-13T00:14:01.478Z,55.30
2018-04-13T00:16:30.553Z,51.57
2018-04-13T00:18:59.648Z,50.53
2018-04-13T00:21:29.493Z,57.63
2018-04-13T00:23:58.562Z,48.93
2018-04-13T00:26:27.668Z,47.70
2018-04-13T00:28:57.201Z,50.27
2018-04-13T00:31:26.303Z,51.00
2018-04-13T00:33:55.370Z,55.03
2018-04-13T00:36:24.442Z,56.97
2018-04-13T00:38:54.279Z,48.40
2018-04-13T00:41:24.112Z,57.73
2018-04-13T00:43:54.012Z,54.63
2018-04-13T00:46:23.095Z,56.17
2018-04-13T00:48:52.165Z,52.73
2018-04-13T00:51:22.224Z,58.80
2018-04-13T00:53:51.332Z,55.37
2018-04-13T00:56:20.531Z,54.17
2018-04-13T00:58:49.632Z,52.77
2018-04-13T01:01:18.738Z,54.90
2018-04-13T01:03:48.600Z,57.17
2018-04-13T01:06:17.712Z,52.60
2018-04-13T01:08:46.843Z,60.57
2018-04-13T01:11:16.740Z,47.20
2018-04-13T01:13:45.826Z,54.10
2018-04-13T01:16:14.946Z,58.63
2018-04-13T01:18:44.054Z,48.30
2018-04-13T01:21:13.179Z,57.83
2018-04-13T01:23:42.340Z,52.17
2018-04-13T01:26:11.441Z,56.57
2018-04-13T01:28:40.570Z,55.93
2018-04-13T01:31:10.411Z,49.40
2018-04-13T01:33:40.279Z,51.33
2018-04-13T01:36:09.385Z,54.73
2018-04-13T01:38:38.470Z,59.20
2018-04-13T01:41:07.617Z,51.73
2018-04-13T01:43:38.248Z,52.73
2018-04-13T01:46:07.325Z,53.63
2018-04-13T01:48:37.163Z,50.40
2018-04-13T01:51:07.020Z,46.97
2018-04-13T01:53:36.099Z,51.93
2018-04-13T01:56:05.928Z,48.30
2018-04-13T01:58:35.002Z,47.77
2018-04-13T02:01:04.106Z,52.37
2018-04-13T02:03:33.216Z,53.50
2018-04-13T02:06:02.330Z,52.53
2018-04-13T02:08:31.436Z,46.47
2018-04-13T02:11:00.625Z,52.20
2018-04-13T02:13:29.806Z,51.63
2018-04-13T02:15:59.640Z,51.57
2018-04-13T02:18:28.747Z,52.83
2018-04-13T02:20:57.843Z,50.60
2018-04-13T02:23:27.722Z,50.37
2018-04-13T02:25:56.831Z,54.10
2018-04-13T02:28:25.907Z,48.80
2018-04-13T02:30:55.017Z,51.43
2018-04-13T02:33:24.092Z,55.80
2018-04-13T02:35:53.203Z,53.23
2018-04-13T02:38:22.315Z,51.80
2018-04-13T02:40:51.420Z,48.87
2018-04-13T02:43:20.525Z,49.10
2018-04-13T02:45:49.598Z,51.63
2018-04-13T02:48:18.682Z,51.00
2018-04-13T02:50:47.783Z,52.63
2018-04-13T02:53:17.657Z,49.90
2018-04-13T02:55:47.147Z,47.17
2018-04-13T02:58:16.256Z,54.33
2018-04-13T03:00:45.405Z,48.33
2018-04-13T03:03:14.512Z,48.10
2018-04-13T03:05:43.593Z,53.30
2018-04-13T03:08:12.668Z,45.60
2018-04-13T03:10:41.801Z,50.70
2018-04-13T03:13:10.886Z,48.87
2018-04-13T03:15:39.986Z,47.07
2018-04-13T03:18:09.088Z,55.77
2018-04-13T03:20:38.196Z,45.30
2018-04-13T03:23:07.318Z,46.17
2018-04-13T03:25:36.390Z,50.33
2018-04-13T03:28:05.470Z,45.03
2018-04-13T03:30:35.336Z,50.63
2018-04-13T03:33:04.435Z,43.53
2018-04-13T03:35:33.542Z,51.73
2018-04-13T03:38:02.652Z,46.63
2018-04-13T03:40:31.792Z,50.00
2018-04-13T03:43:00.903Z,53.73
2018-04-13T03:45:29.975Z,56.93
2018-04-13T03:47:59.039Z,51.87
2018-04-13T03:50:28.143Z,44.73
2018-04-13T03:52:57.235Z,53.70
2018-04-13T03:55:26.347Z,46.40
2018-04-13T03:57:55.424Z,45.93
2018-04-13T04:00:24.525Z,49.13
2018-04-13T04:02:53.594Z,57.03
2018-04-13T04:05:22.701Z,43.70
2018-04-13T04:07:51.850Z,55.33
2018-04-13T04:10:21.679Z,51.00
2018-04-13T04:12:50.764Z,44.53
2018-04-13T04:15:19.851Z,50.87
2018-04-13T04:17:48.962Z,43.73
2018-04-13T04:20:35.908Z,45.43
2018-04-13T04:23:23.750Z,50.10
2018-04-13T04:26:11.495Z,44.30
2018-04-13T04:28:40.588Z,42.77
2018-04-13T04:31:10.407Z,58.17
2018-04-13T04:33:39.504Z,46.33
2018-04-13T04:36:08.578Z,46.60
2018-04-13T04:38:38.459Z,51.83
2018-04-13T04:41:07.556Z,46.70
2018-04-13T04:43:36.672Z,51.63
2018-04-13T04:46:05.749Z,50.23
2018-04-13T04:48:35.624Z,44.10
2018-04-13T04:51:04.703Z,43.93
2018-04-13T04:53:33.832Z,44.63
2018-04-13T04:56:02.911Z,53.40
2018-04-13T04:58:32.820Z,44.17
2018-04-13T05:01:01.895Z,50.10
2018-04-13T05:03:31.045Z,46.90
2018-04-13T05:06:00.882Z,43.13
2018-04-13T05:08:30.752Z,46.43
2018-04-13T05:10:59.926Z,47.17
2018-04-13T05:13:29.796Z,43.40
2018-04-13T05:15:58.869Z,49.50
2018-04-13T05:18:28.738Z,49.77
2018-04-13T05:20:57.872Z,54.53
2018-04-13T05:23:26.955Z,51.73
2018-04-13T05:25:56.050Z,57.53
2018-04-13T05:28:25.175Z,48.73
2018-04-13T05:30:54.281Z,59.33
2018-04-13T05:33:23.384Z,51.20
2018-04-13T05:35:52.528Z,46.67
2018-04-13T05:38:21.628Z,50.10
2018-04-13T05:40:50.739Z,47.87
2018-04-13T05:43:19.848Z,46.33
2018-04-13T05:45:48.989Z,47.97
2018-04-13T05:48:18.092Z,51.47
2018-04-13T05:50:47.208Z,43.17
2018-04-13T05:53:16.307Z,46.67
2018-04-13T05:55:45.436Z,45.47
2018-04-13T05:58:14.535Z,34.73
2018-04-13T06:00:43.620Z,39.30
2018-04-13T06:03:13.480Z,40.60
2018-04-13T06:05:42.931Z,47.80
2018-04-13T06:08:12.033Z,43.70
2018-04-13T06:10:41.913Z,36.33
2018-04-13T06:13:11.000Z,41.33
2018-04-13T06:15:40.095Z,39.03
2018-04-13T06:18:09.243Z,44.93
2018-04-13T06:20:38.310Z,34.87
2018-04-13T06:23:07.473Z,45.73
2018-04-13T06:25:36.566Z,41.23
2018-04-13T06:28:05.639Z,40.83
2018-04-13T06:30:34.755Z,38.97
2018-04-13T06:33:03.937Z,49.20
2018-04-13T06:35:34.563Z,50.97
2018-04-13T06:38:03.649Z,48.47
2018-04-13T06:40:32.824Z,55.10
2018-04-13T06:43:01.956Z,42.10
2018-04-13T06:45:31.120Z,45.37
2018-04-13T06:48:00.971Z,48.50
2018-04-13T06:50:31.065Z,40.90
2018-04-13T06:53:00.184Z,44.43
2018-04-13T06:55:29.462Z,41.50
2018-04-13T06:57:58.608Z,51.47
2018-04-13T07:00:27.786Z,39.97
2018-04-13T07:02:56.900Z,39.33
2018-04-13T07:05:25.982Z,45.97
2018-04-13T07:07:55.120Z,44.00
2018-04-13T07:10:24.202Z,43.90
2018-04-13T07:12:53.303Z,47.43
2018-04-13T07:15:23.220Z,47.07
2018-04-13T07:17:53.152Z,41.07
2018-04-13T07:20:22.999Z,41.33
2018-04-13T07:22:52.118Z,46.83
2018-04-13T07:25:21.248Z,47.93
2018-04-13T07:27:50.359Z,41.00
2018-04-13T07:30:19.464Z,42.87
2018-04-13T07:32:48.550Z,43.87
2018-04-13T07:35:17.649Z,45.00
2018-04-13T07:37:47.951Z,47.30
2018-04-13T07:40:17.100Z,39.20
2018-04-13T07:42:47.102Z,42.60
2018-04-13T07:45:16.894Z,46.10
2018-04-13T07:47:45.983Z,63.37
2018-04-13T07:50:15.130Z,63.37
2018-04-13T07:52:44.252Z,57.63
2018-04-13T07:55:13.374Z,45.50
2018-04-13T07:57:42.525Z,64.87
2018-04-13T08:00:11.636Z,54.03
2018-04-13T08:02:40.807Z,62.33
2018-04-13T08:05:10.701Z,49.53
2018-04-13T08:07:39.870Z,50.47
2018-04-13T08:10:09.748Z,64.93
2018-04-13T08:12:39.602Z,61.17
2018-04-13T08:15:08.712Z,53.50
2018-04-13T08:17:37.824Z,56.03
2018-04-13T08:20:06.903Z,55.93
2018-04-13T08:22:35.980Z,62.20
2018-04-13T08:25:05.092Z,69.10
2018-04-13T08:27:34.171Z,61.27
2018-04-13T08:30:03.285Z,58.63
2018-04-13T08:32:33.239Z,63.57
2018-04-13T08:35:02.354Z,65.13
2018-04-13T08:37:31.444Z,56.30
2018-04-13T08:40:01.322Z,60.20
2018-04-13T08:42:30.412Z,56.23
2018-04-13T08:44:59.556Z,60.53
2018-04-13T08:47:28.703Z,55.57
2018-04-13T08:49:58.584Z,54.03
2018-04-13T08:52:27.772Z,52.47
2018-04-13T08:54:56.936Z,50.53
2018-04-13T08:57:26.052Z,53.60
2018-04-13T08:59:55.167Z,39.27
2018-04-13T09:02:24.322Z,58.40
2018-04-13T09:04:53.420Z,55.53
2018-04-13T09:07:22.590Z,59.80
2018-04-13T09:09:51.681Z,41.00
2018-04-13T09:12:20.792Z,60.17
2018-04-13T09:14:49.916Z,53.60
2018-04-13T09:17:19.012Z,49.30
2018-04-13T09:19:48.854Z,47.13
2018-04-13T09:22:17.970Z,36.87
2018-04-13T09:24:47.044Z,44.83
2018-04-13T09:27:16.198Z,32.17
2018-04-13T09:29:45.308Z,37.93
2018-04-13T09:32:14.421Z,33.70
2018-04-13T09:34:43.497Z,38.60
2018-04-13T09:37:12.660Z,40.03
2018-04-13T09:39:42.537Z,37.70
2018-04-13T09:42:11.635Z,38.40
2018-04-13T09:44:40.741Z,47.90
2018-04-13T09:50:10.208Z,33.67
2018-04-13T09:52:39.321Z,38.70
2018-04-13T09:55:08.433Z,44.17
2018-04-13T09:57:37.584Z,44.00
2018-04-13T10:00:07.431Z,48.37
2018-04-13T10:02:38.128Z,48.20
2018-04-13T10:05:12.949Z,48.00
2018-04-13T10:07:42.148Z,52.50
2018-04-13T10:10:11.257Z,53.57
2018-04-13T10:12:40.639Z,57.17
2018-04-13T10:15:09.783Z,56.03
2018-04-13T10:17:38.888Z,45.87
2018-04-13T10:20:07.967Z,48.70
2018-04-13T10:22:37.369Z,48.40
2018-04-13T10:25:06.472Z,55.73
2018-04-13T10:27:35.550Z,63.13
2018-04-13T10:30:04.683Z,51.80
2018-04-13T10:32:33.762Z,54.60
2018-04-13T10:35:02.859Z,49.13
2018-04-13T10:37:33.062Z,58.33
2018-04-13T10:40:02.144Z,56.10
2018-04-13T10:42:31.252Z,64.60
2018-04-13T10:45:00.350Z,57.60
2018-04-13T10:47:29.457Z,54.30
2018-04-13T10:49:58.608Z,54.37
2018-04-13T10:52:27.714Z,58.70
2018-04-13T10:54:56.829Z,53.07
2018-04-13T10:57:25.902Z,51.40
2018-04-13T10:59:54.975Z,62.17
2018-04-13T11:02:24.104Z,57.43
2018-04-13T11:04:53.950Z,53.57
2018-04-13T11:07:23.065Z,52.53
2018-04-13T11:09:52.176Z,55.10
2018-04-13T11:12:21.287Z,50.83
2018-04-13T11:14:50.367Z,46.27
2018-04-13T11:17:20.207Z,50.07
2018-04-13T11:19:50.106Z,53.33
2018-04-13T11:22:19.206Z,49.83
2018-04-13T11:24:48.395Z,45.53
2018-04-13T11:27:17.477Z,42.27
2018-04-13T11:29:46.689Z,37.73
2018-04-13T11:32:15.876Z,40.90
2018-04-13T11:34:45.720Z,32.63
2018-04-13T11:37:14.833Z,47.30
2018-04-13T11:39:43.915Z,40.47
2018-04-13T11:42:13.020Z,33.43
2018-04-13T11:44:42.133Z,31.57
2018-04-13T11:47:11.248Z,33.17
2018-04-13T11:49:41.099Z,33.10
2018-04-13T11:52:10.171Z,33.70
2018-04-13T11:54:39.285Z,24.43
2018-04-13T11:57:08.407Z,72.93
2018-04-13T11:59:38.335Z,20.47
2018-04-13T12:02:08.182Z,26.37
2018-04-13T12:04:38.057Z,28.00
2018-04-13T12:07:07.142Z,21.85
2018-04-13T12:09:36.283Z,18.97
2018-04-13T12:12:05.426Z,19.50
2018-04-13T12:14:34.543Z,22.23
2018-04-13T12:17:04.382Z,20.17
2018-04-13T12:19:33.490Z,21.37
2018-04-13T12:22:02.650Z,32.57
2018-04-13T12:27:07.229Z,18.17
2018-04-13T12:29:36.315Z,19.77
2018-04-13T12:32:05.429Z,26.73
2018-04-13T12:34:34.507Z,19.13
2018-04-13T12:37:03.692Z,22.53
2018-04-13T12:39:32.777Z,16.80
2018-04-13T12:42:01.884Z,34.97
2018-04-13T12:44:30.968Z,15.17
2018-04-13T12:47:00.076Z,22.30
2018-04-13T12:49:29.336Z,22.90
2018-04-13T12:51:59.280Z,13.53
2018-04-13T12:54:28.626Z,16.40
2018-04-13T12:56:57.514Z,17.00
2018-04-13T12:59:27.387Z,19.37
2018-04-13T13:01:56.500Z,22.20
2018-04-13T13:04:25.642Z,23.33
2018-04-13T13:06:54.748Z,14.80
2018-04-13T13:09:23.822Z,12.20
2018-04-13T13:11:52.921Z,22.70
2018-04-13T13:14:22.003Z,17.53
2018-04-13T13:16:51.888Z,18.03
2018-04-13T13:19:20.954Z,13.97
2018-04-13T13:21:50.873Z,16.00
2018-04-13T13:24:20.859Z,15.70
2018-04-13T13:26:49.928Z,16.53
2018-04-13T13:29:19.001Z,19.73
2018-04-13T13:31:48.100Z,21.57
2018-04-13T13:34:17.208Z,19.37
2018-04-13T13:36:46.317Z,31.10
2018-04-13T13:39:15.432Z,17.57
2018-04-13T13:41:44.576Z,12.20
2018-04-13T13:44:14.505Z,18.47
2018-04-13T13:46:44.347Z,27.13
2018-04-13T13:49:14.035Z,13.03
2018-04-13T13:51:43.150Z,21.13
2018-04-13T13:54:12.248Z,14.13
2018-04-13T13:56:41.339Z,21.73
2018-04-13T13:59:10.471Z,16.20
2018-04-13T14:01:39.609Z,10.77
2018-04-13T14:04:09.481Z,13.93
2018-04-13T14:06:38.554Z,14.10
2018-04-13T14:09:08.420Z,12.60
2018-04-13T14:11:37.525Z,18.03
2018-04-13T14:14:06.634Z,14.30
2018-04-13T14:16:35.749Z,15.43
2018-04-13T14:19:04.865Z,23.70
2018-04-13T14:21:34.307Z,9.50
2018-04-13T14:24:03.396Z,15.03
2018-04-13T14:26:32.464Z,15.30
2018-04-13T14:29:02.333Z,10.10
2018-04-13T14:31:31.428Z,8.53
2018-04-13T14:34:00.524Z,13.90
2018-04-13T14:36:29.607Z,8.90
2018-04-13T14:38:58.766Z,14.30
2018-04-13T14:41:27.944Z,11.50
2018-04-13T14:43:57.786Z,10.00
2018-04-13T14:46:26.859Z,15.07
2018-04-13T14:48:56.725Z,6.70
2018-04-13T14:51:25.803Z,8.83
2018-04-13T14:53:54.973Z,10.23
2018-04-13T14:56:24.083Z,10.70
2018-04-13T14:58:53.179Z,11.67
2018-04-13T15:01:22.044Z,9.10
2018-04-13T15:03:51.879Z,20.20
2018-04-13T15:06:21.773Z,13.10
2018-04-13T15:08:50.941Z,12.53
2018-04-13T15:11:20.045Z,9.63
2018-04-13T15:13:49.115Z,11.37
2018-04-13T15:16:18.200Z,12.67
2018-04-13T15:18:47.292Z,13.40
2018-04-13T15:21:16.453Z,12.13
2018-04-13T15:23:45.599Z,14.70
2018-04-13T15:26:14.728Z,12.90
2018-04-13T15:28:44.478Z,9.53
2018-04-13T15:31:13.599Z,10.60
2018-04-13T15:36:43.488Z,11.40
2018-04-13T15:39:13.437Z,10.03
2018-04-13T15:41:42.563Z,12.40
2018-04-13T15:44:11.660Z,13.20
2018-04-13T15:46:40.808Z,13.23
2018-04-13T15:49:09.888Z,23.57
2018-04-13T15:51:38.992Z,12.40
2018-04-13T15:54:08.103Z,14.03
2018-04-13T15:56:37.199Z,10.73
2018-04-13T15:59:07.073Z,17.03
2018-04-13T16:01:36.214Z,14.07
2018-04-13T16:04:05.252Z,13.27
2018-04-13T16:06:35.091Z,10.90
2018-04-13T16:09:04.176Z,11.60
2018-04-13T16:11:34.008Z,7.47
2018-04-13T16:14:03.972Z,5.13
2018-04-13T16:16:33.080Z,11.03
2018-04-13T16:19:02.187Z,4.53
2018-04-13T16:21:31.252Z,7.33
2018-04-13T16:24:00.372Z,6.47
2018-04-13T16:26:29.465Z,12.93
2018-04-13T16:28:58.612Z,4.93
2018-04-13T16:31:28.468Z,9.00
2018-04-13T16:33:57.536Z,9.20
2018-04-13T16:36:26.626Z,7.03
2018-04-13T16:38:55.728Z,18.07
2018-04-13T16:41:24.864Z,7.93
2018-04-13T16:43:54.742Z,9.73
2018-04-13T16:46:23.835Z,9.03
2018-04-13T16:48:52.908Z,8.60
2018-04-13T16:51:21.987Z,7.57
2018-04-13T16:53:51.063Z,6.93
2018-04-13T16:56:20.126Z,14.17
2018-04-13T16:58:49.196Z,6.10
2018-04-13T17:01:18.294Z,11.33
2018-04-13T17:03:47.359Z,6.63
2018-04-13T17:06:16.459Z,10.80
2018-04-13T17:08:45.518Z,17.70
2018-04-13T17:11:14.648Z,16.60
2018-04-13T17:13:43.735Z,10.40
2018-04-13T17:16:12.885Z,12.80
2018-04-13T17:18:42.032Z,10.73
2018-04-13T17:21:11.912Z,38.43
2018-04-13T17:23:41.463Z,19.77
2018-04-13T17:26:11.065Z,15.80
2018-04-13T17:28:40.143Z,55.53
2018-04-13T17:31:09.215Z,12.80
2018-04-13T17:33:39.435Z,32.93
2018-04-13T17:36:08.516Z,29.23
2018-04-13T17:38:37.591Z,17.77
2018-04-13T17:41:07.628Z,9.40
2018-04-13T17:43:37.516Z,15.20
2018-04-13T17:46:07.472Z,11.73
2018-04-13T17:48:36.572Z,13.90
2018-04-13T17:51:05.658Z,14.40
2018-04-13T17:53:34.796Z,17.70
2018-04-13T17:56:03.914Z,22.57
2018-04-13T18:01:31.532Z,13.90
2018-04-13T18:04:01.733Z,13.13
2018-04-13T18:06:30.850Z,10.70
2018-04-13T18:08:59.955Z,17.20
2018-04-13T18:11:29.037Z,13.97
2018-04-13T18:13:58.142Z,13.30
2018-04-13T18:16:27.247Z,13.17
2018-04-13T18:18:57.243Z,7.53
2018-04-13T18:21:27.080Z,11.43
2018-04-13T18:23:56.979Z,14.77
2018-04-13T18:26:26.051Z,14.70
2018-04-13T18:28:55.119Z,19.73
2018-04-13T18:31:24.994Z,16.10
2018-04-13T18:33:55.207Z,15.00
2018-04-13T18:36:24.288Z,10.20
2018-04-13T18:38:53.359Z,18.20
2018-04-13T18:41:22.488Z,13.70
2018-04-13T18:43:51.600Z,11.10
2018-04-13T18:46:20.702Z,22.37
2018-04-13T18:48:49.775Z,12.83
2018-04-13T18:51:18.917Z,31.57
2018-04-13T18:53:48.340Z,35.50
2018-04-13T18:56:17.567Z,18.13
2018-04-13T18:58:46.655Z,21.77
2018-04-13T19:01:15.765Z,15.27
2018-04-13T19:03:44.847Z,26.67
2018-04-13T19:06:14.475Z,28.17
2018-04-13T19:08:43.618Z,19.00
2018-04-13T19:11:12.879Z,16.23
2018-04-13T19:13:42.251Z,22.07
2018-04-13T19:16:11.365Z,20.27
2018-04-13T19:18:40.447Z,24.47
2018-04-13T19:21:09.557Z,17.20
2018-04-13T19:23:38.668Z,13.50
2018-04-13T19:26:07.911Z,49.60
2018-04-13T19:28:37.757Z,42.63
2018-04-13T19:31:07.671Z,38.17
2018-04-13T19:33:36.788Z,34.03
2018-04-13T19:36:06.048Z,23.77
2018-04-13T19:38:35.162Z,38.10
2018-04-13T19:41:04.292Z,18.70
2018-04-13T19:43:33.379Z,22.73
2018-04-13T19:46:02.486Z,26.50
2018-04-13T19:48:31.572Z,28.07
2018-04-13T19:51:01.451Z,38.37
2018-04-13T19:53:30.527Z,28.97
2018-04-13T19:55:59.639Z,25.37
2018-04-13T19:58:28.813Z,17.07
2018-04-13T20:00:57.933Z,18.93
2018-04-13T20:03:27.116Z,19.00
2018-04-13T20:05:56.200Z,18.10
2018-04-13T20:08:25.306Z,30.83
2018-04-13T20:10:54.463Z,28.10
2018-04-13T20:13:23.547Z,19.80
2018-04-13T20:15:52.626Z,25.33
2018-04-13T20:18:21.733Z,29.40
2018-04-13T20:20:50.843Z,24.60
2018-04-13T20:23:20.001Z,21.03
2018-04-13T20:25:49.067Z,19.70
2018-04-13T20:28:18.146Z,20.47
2018-04-13T20:30:47.288Z,25.03
2018-04-13T20:33:16.401Z,27.60
2018-04-13T20:35:45.577Z,25.80
2018-04-13T20:38:14.734Z,31.43
2018-04-13T20:40:43.848Z,45.60
2018-04-13T20:43:12.958Z,38.63
2018-04-13T20:45:42.103Z,33.53
2018-04-13T20:48:11.204Z,41.27
2018-04-13T20:50:40.293Z,32.40
2018-04-13T20:53:09.408Z,41.40
2018-04-13T20:55:38.544Z,32.57
2018-04-13T20:58:07.651Z,30.23
2018-04-13T21:00:36.726Z,27.80
2018-04-13T21:03:05.824Z,27.07
2018-04-13T21:05:35.686Z,23.10
2018-04-13T21:08:04.903Z,25.13
2018-04-13T21:10:33.986Z,25.50
2018-04-13T21:13:03.068Z,21.33
2018-04-13T21:15:32.921Z,18.27
2018-04-13T21:18:02.028Z,17.70
2018-04-13T21:20:31.145Z,12.93
2018-04-13T21:23:00.255Z,21.60
2018-04-13T21:25:29.364Z,20.57
2018-04-13T21:27:58.695Z,15.50
2018-04-13T21:30:27.804Z,25.17
2018-04-13T21:32:56.887Z,18.67
2018-04-13T21:35:26.758Z,15.87
2018-04-13T21:37:55.865Z,17.07
2018-04-13T21:40:24.946Z,16.90
2018-04-13T21:42:54.023Z,23.67
2018-04-13T21:45:23.141Z,15.53
2018-04-13T21:47:53.065Z,15.10
2018-04-13T21:50:22.149Z,18.33
2018-04-13T21:52:51.248Z,16.27
2018-04-13T21:55:20.322Z,16.37
2018-04-13T21:57:50.315Z,17.23
2018-04-13T22:00:19.403Z,18.70
2018-04-13T22:02:48.572Z,20.37
2018-04-13T22:05:17.665Z,20.73
2018-04-13T22:07:46.804Z,17.63
2018-04-13T22:10:15.949Z,6.67
2018-04-13T22:13:02.692Z,5.13
2018-04-13T22:15:31.840Z,6.53
2018-04-13T22:18:01.678Z,3.83
2018-04-13T22:20:30.848Z,5.27
2018-04-13T22:22:59.923Z,3.50
2018-04-13T22:25:29.007Z,4.20
2018-04-13T22:27:58.111Z,4.13
2018-04-13T22:30:27.980Z,4.77
2018-04-13T22:32:57.128Z,5.33
2018-04-13T22:35:26.235Z,7.90
2018-04-13T22:37:55.432Z,26.60
2018-04-13T22:40:24.539Z,18.43
2018-04-13T22:42:53.636Z,8.50
2018-04-13T22:45:22.707Z,6.30
2018-04-13T22:47:52.616Z,6.53
2018-04-13T22:50:22.489Z,7.60
2018-04-13T22:52:51.599Z,12.83
2018-04-13T22:55:20.701Z,9.90
2018-04-13T22:57:49.804Z,7.37
2018-04-13T23:00:18.879Z,8.90
2018-04-13T23:02:48.419Z,8.93
2018-04-13T23:05:18.292Z,6.03
2018-04-13T23:07:48.139Z,6.23
2018-04-13T23:10:17.250Z,7.17
2018-04-13T23:12:47.052Z,6.50
2018-04-13T23:15:16.207Z,12.20
2018-04-13T23:17:45.251Z,17.23
2018-04-13T23:20:14.362Z,6.57
2018-04-13T23:22:43.544Z,7.37
2018-04-13T23:25:12.640Z,9.30
2018-04-13T23:27:41.744Z,19.23
2018-04-13T23:30:10.849Z,8.23
2018-04-13T23:32:39.948Z,8.40
2018-04-13T23:35:09.782Z,8.40
2018-04-13T23:37:38.968Z,9.37
2018-04-13T23:40:08.080Z,10.07
2018-04-13T23:42:37.182Z,9.87
2018-04-13T23:45:06.257Z,12.80
2018-04-13T23:47:36.148Z,13.03
2018-04-13T23:50:05.292Z,11.10
2018-04-13T23:52:34.468Z,8.80
2018-04-13T23:55:04.309Z,8.47
2018-04-13T23:57:33.407Z,10.03
